sensor_id;sensor_type;location;lat;lon;timestamp;temperature;humidity
19945;DHT22;10134;50.952;6.930;2023-04-24T00:01:49;14.00;99.90
19945;DHT22;10134;50.952;6.930;2023-04-24T00:04:17;13.90;99.90
19945;DHT22;10134;50.952;6.930;2023-04-24T00:06:44;13.90;99.90
19945;DHT22;10134;50.952;6.930;2023-04-24T00:09:16;13.90;99.90
19945;DHT22;10134;50.952;6.930;2023-04-24T00:11:43;13.90;99.90
19945;DHT22;10134;50.952;6.930;2023-04-24T00:14:11;13.90;99.90
19945;DHT22;10134;50.952;6.930;2023-04-24T00:16:38;13.90;99.90
19945;DHT22;10134;50.952;6.930;2023-04-24T00:19:06;13.90;99.90
19945;DHT22;10134;50.952;6.930;2023-04-24T00:21:33;13.90;99.90
19945;DHT22;10134;50.952;6.930;2023-04-24T00:24:01;13.90;99.90
19945;DHT22;10134;50.952;6.930;2023-04-24T00:26:28;13.90;99.90
19945;DHT22;10134;50.952;6.930;2023-04-24T00:28:55;13.90;99.90
19945;DHT22;10134;50.952;6.930;2023-04-24T00:31:23;13.90;99.90
19945;DHT22;10134;50.952;6.930;2023-04-24T00:33:50;13.90;99.90
19945;DHT22;10134;50.952;6.930;2023-04-24T00:36:18;13.80;99.90
19945;DHT22;10134;50.952;6.930;2023-04-24T00:38:47;13.80;99.90
19945;DHT22;10134;50.952;6.930;2023-04-24T00:41:14;13.80;99.90
19945;DHT22;10134;50.952;6.930;2023-04-24T00:43:42;13.70;99.90
19945;DHT22;10134;50.952;6.930;2023-04-24T00:46:10;13.70;99.90
19945;DHT22;10134;50.952;6.930;2023-04-24T00:48:39;13.70;99.90
19945;DHT22;10134;50.952;6.930;2023-04-24T00:51:07;13.70;99.90
19945;DHT22;10134;50.952;6.930;2023-04-24T00:53:34;13.70;99.90
19945;DHT22;10134;50.952;6.930;2023-04-24T00:56:02;13.70;99.90
19945;DHT22;10134;50.952;6.930;2023-04-24T00:58:30;13.70;99.90
19945;DHT22;10134;50.952;6.930;2023-04-24T01:00:58;13.70;99.90
19945;DHT22;10134;50.952;6.930;2023-04-24T01:03:29;13.70;99.90
19945;DHT22;10134;50.952;6.930;2023-04-24T01:05:59;13.60;99.90
19945;DHT22;10134;50.952;6.930;2023-04-24T01:08:27;13.50;99.90
19945;DHT22;10134;50.952;6.930;2023-04-24T01:10:57;13.50;99.90
19945;DHT22;10134;50.952;6.930;2023-04-24T01:13:24;13.50;99.90
19945;DHT22;10134;50.952;6.930;2023-04-24T01:15:52;13.40;99.90
19945;DHT22;10134;50.952;6.930;2023-04-24T01:18:19;13.40;99.90
19945;DHT22;10134;50.952;6.930;2023-04-24T01:20:51;13.40;99.90
19945;DHT22;10134;50.952;6.930;2023-04-24T01:23:20;13.40;99.90
19945;DHT22;10134;50.952;6.930;2023-04-24T01:25:48;13.40;99.90
19945;DHT22;10134;50.952;6.930;2023-04-24T01:28:17;13.40;99.90
19945;DHT22;10134;50.952;6.930;2023-04-24T01:30:44;13.40;99.90
19945;DHT22;10134;50.952;6.930;2023-04-24T01:33:12;13.30;99.90
19945;DHT22;10134;50.952;6.930;2023-04-24T01:35:40;13.20;99.90
19945;DHT22;10134;50.952;6.930;2023-04-24T01:38:07;13.20;99.90
19945;DHT22;10134;50.952;6.930;2023-04-24T01:40:35;13.10;99.90
19945;DHT22;10134;50.952;6.930;2023-04-24T01:43:03;13.00;99.90
19945;DHT22;10134;50.952;6.930;2023-04-24T01:45:30;13.00;99.90
19945;DHT22;10134;50.952;6.930;2023-04-24T01:47:57;12.90;99.90
19945;DHT22;10134;50.952;6.930;2023-04-24T01:50:25;12.80;99.90
19945;DHT22;10134;50.952;6.930;2023-04-24T01:52:52;12.80;99.90
19945;DHT22;10134;50.952;6.930;2023-04-24T01:55:20;12.70;99.90
19945;DHT22;10134;50.952;6.930;2023-04-24T01:57:47;12.70;99.90
19945;DHT22;10134;50.952;6.930;2023-04-24T02:00:15;12.60;99.90
19945;DHT22;10134;50.952;6.930;2023-04-24T02:02:42;12.60;99.90
19945;DHT22;10134;50.952;6.930;2023-04-24T02:05:14;12.50;99.90
19945;DHT22;10134;50.952;6.930;2023-04-24T02:07:42;12.50;99.90
19945;DHT22;10134;50.952;6.930;2023-04-24T02:10:09;12.50;99.90
19945;DHT22;10134;50.952;6.930;2023-04-24T02:12:42;12.30;99.90
19945;DHT22;10134;50.952;6.930;2023-04-24T02:15:09;12.10;99.90
19945;DHT22;10134;50.952;6.930;2023-04-24T02:17:37;12.00;99.90
19945;DHT22;10134;50.952;6.930;2023-04-24T02:20:06;12.00;99.90
19945;DHT22;10134;50.952;6.930;2023-04-24T02:22:33;12.00;99.90
19945;DHT22;10134;50.952;6.930;2023-04-24T02:25:01;11.90;99.90
19945;DHT22;10134;50.952;6.930;2023-04-24T02:27:29;11.90;99.90
19945;DHT22;10134;50.952;6.930;2023-04-24T02:29:57;11.90;99.90
19945;DHT22;10134;50.952;6.930;2023-04-24T02:32:24;11.80;99.90
19945;DHT22;10134;50.952;6.930;2023-04-24T02:34:52;11.70;99.90
19945;DHT22;10134;50.952;6.930;2023-04-24T02:37:19;11.70;99.90
19945;DHT22;10134;50.952;6.930;2023-04-24T02:39:47;11.70;99.90
19945;DHT22;10134;50.952;6.930;2023-04-24T02:42:14;11.70;99.90
19945;DHT22;10134;50.952;6.930;2023-04-24T02:44:42;11.70;99.90
19945;DHT22;10134;50.952;6.930;2023-04-24T02:47:09;11.70;99.90
19945;DHT22;10134;50.952;6.930;2023-04-24T02:49:37;11.70;99.90
19945;DHT22;10134;50.952;6.930;2023-04-24T02:52:04;11.70;99.90
19945;DHT22;10134;50.952;6.930;2023-04-24T02:54:32;11.70;99.90
19945;DHT22;10134;50.952;6.930;2023-04-24T02:56:59;11.70;99.90
19945;DHT22;10134;50.952;6.930;2023-04-24T02:59:28;11.70;99.90
19945;DHT22;10134;50.952;6.930;2023-04-24T03:01:56;11.70;99.90
19945;DHT22;10134;50.952;6.930;2023-04-24T03:04:23;11.70;99.90
19945;DHT22;10134;50.952;6.930;2023-04-24T03:06:51;11.70;99.90
19945;DHT22;10134;50.952;6.930;2023-04-24T03:09:23;11.70;99.90
19945;DHT22;10134;50.952;6.930;2023-04-24T03:11:50;11.80;99.90
19945;DHT22;10134;50.952;6.930;2023-04-24T03:14:18;11.80;99.90
19945;DHT22;10134;50.952;6.930;2023-04-24T03:16:45;11.80;99.90
19945;DHT22;10134;50.952;6.930;2023-04-24T03:19:12;11.70;99.90
19945;DHT22;10134;50.952;6.930;2023-04-24T03:21:54;11.80;99.90
19945;DHT22;10134;50.952;6.930;2023-04-24T03:24:21;11.70;99.90
19945;DHT22;10134;50.952;6.930;2023-04-24T03:26:49;11.70;99.90
19945;DHT22;10134;50.952;6.930;2023-04-24T03:29:31;11.70;99.90
19945;DHT22;10134;50.952;6.930;2023-04-24T03:31:58;11.60;99.90
19945;DHT22;10134;50.952;6.930;2023-04-24T03:34:26;11.70;99.90
19945;DHT22;10134;50.952;6.930;2023-04-24T03:36:53;11.70;99.90
19945;DHT22;10134;50.952;6.930;2023-04-24T03:39:21;11.70;99.90
19945;DHT22;10134;50.952;6.930;2023-04-24T03:41:53;11.70;99.90
19945;DHT22;10134;50.952;6.930;2023-04-24T03:44:26;11.70;99.90
19945;DHT22;10134;50.952;6.930;2023-04-24T03:46:54;11.70;99.90
19945;DHT22;10134;50.952;6.930;2023-04-24T03:49:23;11.70;99.90
19945;DHT22;10134;50.952;6.930;2023-04-24T03:51:50;11.60;99.90
19945;DHT22;10134;50.952;6.930;2023-04-24T03:54:22;11.60;99.90
19945;DHT22;10134;50.952;6.930;2023-04-24T03:56:51;11.60;99.90
19945;DHT22;10134;50.952;6.930;2023-04-24T03:59:19;11.60;99.90
19945;DHT22;10134;50.952;6.930;2023-04-24T04:01:56;11.60;99.90
19945;DHT22;10134;50.952;6.930;2023-04-24T04:04:24;11.60;99.90
19945;DHT22;10134;50.952;6.930;2023-04-24T04:06:52;11.60;99.90
19945;DHT22;10134;50.952;6.930;2023-04-24T04:09:20;11.60;99.90
19945;DHT22;10134;50.952;6.930;2023-04-24T04:11:47;11.60;99.90
19945;DHT22;10134;50.952;6.930;2023-04-24T04:14:15;11.60;99.90
19945;DHT22;10134;50.952;6.930;2023-04-24T04:16:45;11.60;99.90
19945;DHT22;10134;50.952;6.930;2023-04-24T04:19:13;11.60;99.90
19945;DHT22;10134;50.952;6.930;2023-04-24T04:21:41;11.60;99.90
19945;DHT22;10134;50.952;6.930;2023-04-24T04:24:23;11.60;99.90
19945;DHT22;10134;50.952;6.930;2023-04-24T04:26:52;11.60;99.90
19945;DHT22;10134;50.952;6.930;2023-04-24T04:29:27;11.60;99.90
19945;DHT22;10134;50.952;6.930;2023-04-24T04:31:54;11.60;99.90
19945;DHT22;10134;50.952;6.930;2023-04-24T04:34:23;11.60;99.90
19945;DHT22;10134;50.952;6.930;2023-04-24T04:36:51;11.60;99.90
19945;DHT22;10134;50.952;6.930;2023-04-24T04:39:41;11.60;99.90
19945;DHT22;10134;50.952;6.930;2023-04-24T04:42:17;11.60;99.90
19945;DHT22;10134;50.952;6.930;2023-04-24T04:44:46;11.60;99.90
19945;DHT22;10134;50.952;6.930;2023-04-24T04:47:18;11.60;99.90
19945;DHT22;10134;50.952;6.930;2023-04-24T04:49:45;11.60;99.90
19945;DHT22;10134;50.952;6.930;2023-04-24T04:52:18;11.60;99.90
19945;DHT22;10134;50.952;6.930;2023-04-24T04:54:51;11.60;99.90
19945;DHT22;10134;50.952;6.930;2023-04-24T04:57:20;11.60;99.90
19945;DHT22;10134;50.952;6.930;2023-04-24T04:59:47;11.60;99.90
19945;DHT22;10134;50.952;6.930;2023-04-24T05:02:25;11.60;99.90
19945;DHT22;10134;50.952;6.930;2023-04-24T05:04:53;11.60;99.90
19945;DHT22;10134;50.952;6.930;2023-04-24T05:07:24;11.60;99.90
19945;DHT22;10134;50.952;6.930;2023-04-24T05:09:54;11.60;99.90
19945;DHT22;10134;50.952;6.930;2023-04-24T05:12:24;11.60;99.90
19945;DHT22;10134;50.952;6.930;2023-04-24T05:14:53;11.70;99.90
19945;DHT22;10134;50.952;6.930;2023-04-24T05:17:23;11.70;99.90
19945;DHT22;10134;50.952;6.930;2023-04-24T05:19:53;11.80;99.90
19945;DHT22;10134;50.952;6.930;2023-04-24T05:22:20;11.80;99.90
19945;DHT22;10134;50.952;6.930;2023-04-24T05:24:51;11.70;99.90
19945;DHT22;10134;50.952;6.930;2023-04-24T05:27:37;11.70;99.90
19945;DHT22;10134;50.952;6.930;2023-04-24T05:30:11;11.70;99.90
19945;DHT22;10134;50.952;6.930;2023-04-24T05:32:39;11.80;99.90
19945;DHT22;10134;50.952;6.930;2023-04-24T05:35:07;11.80;99.90
19945;DHT22;10134;50.952;6.930;2023-04-24T05:37:36;11.70;99.90
19945;DHT22;10134;50.952;6.930;2023-04-24T05:40:04;11.70;99.90
19945;DHT22;10134;50.952;6.930;2023-04-24T05:42:32;11.70;99.90
19945;DHT22;10134;50.952;6.930;2023-04-24T05:44:59;11.70;99.90
19945;DHT22;10134;50.952;6.930;2023-04-24T05:47:27;11.80;99.90
19945;DHT22;10134;50.952;6.930;2023-04-24T05:49:54;11.70;99.90
19945;DHT22;10134;50.952;6.930;2023-04-24T05:52:21;11.80;99.90
19945;DHT22;10134;50.952;6.930;2023-04-24T05:54:50;11.80;99.90
19945;DHT22;10134;50.952;6.930;2023-04-24T05:57:22;11.80;99.90
19945;DHT22;10134;50.952;6.930;2023-04-24T05:59:53;11.80;99.90
19945;DHT22;10134;50.952;6.930;2023-04-24T06:02:21;11.80;99.90
19945;DHT22;10134;50.952;6.930;2023-04-24T06:04:52;11.80;99.90
19945;DHT22;10134;50.952;6.930;2023-04-24T06:07:19;11.80;99.90
19945;DHT22;10134;50.952;6.930;2023-04-24T06:09:47;11.80;99.90
19945;DHT22;10134;50.952;6.930;2023-04-24T06:12:15;11.80;99.90
19945;DHT22;10134;50.952;6.930;2023-04-24T06:15:00;11.80;99.90
19945;DHT22;10134;50.952;6.930;2023-04-24T06:17:49;11.70;99.90
19945;DHT22;10134;50.952;6.930;2023-04-24T06:20:18;11.60;99.90
19945;DHT22;10134;50.952;6.930;2023-04-24T06:22:45;11.60;99.90
19945;DHT22;10134;50.952;6.930;2023-04-24T06:25:13;11.50;99.90
19945;DHT22;10134;50.952;6.930;2023-04-24T06:27:40;11.60;99.90
19945;DHT22;10134;50.952;6.930;2023-04-24T06:30:08;11.50;99.90
19945;DHT22;10134;50.952;6.930;2023-04-24T06:32:35;11.50;99.90
19945;DHT22;10134;50.952;6.930;2023-04-24T06:35:03;11.50;99.90
19945;DHT22;10134;50.952;6.930;2023-04-24T06:37:31;11.50;99.90
19945;DHT22;10134;50.952;6.930;2023-04-24T06:39:59;11.40;99.90
19945;DHT22;10134;50.952;6.930;2023-04-24T06:42:26;11.40;99.90
19945;DHT22;10134;50.952;6.930;2023-04-24T06:44:55;11.40;99.90
19945;DHT22;10134;50.952;6.930;2023-04-24T06:47:22;11.40;99.90
19945;DHT22;10134;50.952;6.930;2023-04-24T06:49:50;11.30;99.90
19945;DHT22;10134;50.952;6.930;2023-04-24T06:52:19;11.30;99.90
19945;DHT22;10134;50.952;6.930;2023-04-24T06:54:47;11.30;99.90
19945;DHT22;10134;50.952;6.930;2023-04-24T06:57:14;11.20;99.90
19945;DHT22;10134;50.952;6.930;2023-04-24T06:59:43;11.20;99.90
19945;DHT22;10134;50.952;6.930;2023-04-24T07:02:11;11.20;99.90
19945;DHT22;10134;50.952;6.930;2023-04-24T07:04:38;11.20;99.90
19945;DHT22;10134;50.952;6.930;2023-04-24T07:07:05;11.20;99.90
19945;DHT22;10134;50.952;6.930;2023-04-24T07:09:33;11.20;99.90
19945;DHT22;10134;50.952;6.930;2023-04-24T07:12:05;11.20;99.90
19945;DHT22;10134;50.952;6.930;2023-04-24T07:14:33;11.30;99.90
19945;DHT22;10134;50.952;6.930;2023-04-24T07:17:00;11.30;99.90
19945;DHT22;10134;50.952;6.930;2023-04-24T07:19:28;11.20;99.90
19945;DHT22;10134;50.952;6.930;2023-04-24T07:21:55;11.20;99.90
19945;DHT22;10134;50.952;6.930;2023-04-24T07:24:22;11.20;99.90
19945;DHT22;10134;50.952;6.930;2023-04-24T07:26:53;11.20;99.90
19945;DHT22;10134;50.952;6.930;2023-04-24T07:29:21;11.10;99.90
19945;DHT22;10134;50.952;6.930;2023-04-24T07:31:48;11.10;99.90
19945;DHT22;10134;50.952;6.930;2023-04-24T07:34:15;11.10;99.90
19945;DHT22;10134;50.952;6.930;2023-04-24T07:36:43;11.10;99.90
19945;DHT22;10134;50.952;6.930;2023-04-24T07:39:10;11.10;99.90
19945;DHT22;10134;50.952;6.930;2023-04-24T07:41:37;10.90;99.90
19945;DHT22;10134;50.952;6.930;2023-04-24T07:44:04;10.80;99.90
19945;DHT22;10134;50.952;6.930;2023-04-24T07:46:32;10.70;99.90
19945;DHT22;10134;50.952;6.930;2023-04-24T07:48:59;10.60;99.90
19945;DHT22;10134;50.952;6.930;2023-04-24T07:51:40;10.50;99.90
19945;DHT22;10134;50.952;6.930;2023-04-24T07:54:08;10.40;99.90
19945;DHT22;10134;50.952;6.930;2023-04-24T07:56:35;10.40;99.90
19945;DHT22;10134;50.952;6.930;2023-04-24T07:59:06;10.20;99.90
19945;DHT22;10134;50.952;6.930;2023-04-24T08:01:33;10.10;99.90
19945;DHT22;10134;50.952;6.930;2023-04-24T08:04:00;10.10;99.90
19945;DHT22;10134;50.952;6.930;2023-04-24T08:06:29;9.90;99.90
19945;DHT22;10134;50.952;6.930;2023-04-24T08:08:58;9.90;99.90
19945;DHT22;10134;50.952;6.930;2023-04-24T08:11:26;9.90;99.90
19945;DHT22;10134;50.952;6.930;2023-04-24T08:13:54;9.80;99.90
19945;DHT22;10134;50.952;6.930;2023-04-24T08:16:22;9.80;99.90
19945;DHT22;10134;50.952;6.930;2023-04-24T08:18:51;9.70;99.90
19945;DHT22;10134;50.952;6.930;2023-04-24T08:21:19;9.70;99.90
19945;DHT22;10134;50.952;6.930;2023-04-24T08:23:47;9.60;99.90
19945;DHT22;10134;50.952;6.930;2023-04-24T08:26:15;9.60;99.90
19945;DHT22;10134;50.952;6.930;2023-04-24T08:28:42;9.50;99.90
19945;DHT22;10134;50.952;6.930;2023-04-24T08:31:09;9.40;99.90
19945;DHT22;10134;50.952;6.930;2023-04-24T08:33:37;9.40;99.90
19945;DHT22;10134;50.952;6.930;2023-04-24T08:36:05;9.30;99.90
19945;DHT22;10134;50.952;6.930;2023-04-24T08:38:33;9.40;99.90
19945;DHT22;10134;50.952;6.930;2023-04-24T08:41:01;9.30;99.90
19945;DHT22;10134;50.952;6.930;2023-04-24T08:43:29;9.30;99.90
19945;DHT22;10134;50.952;6.930;2023-04-24T08:45:57;9.30;99.90
19945;DHT22;10134;50.952;6.930;2023-04-24T08:48:24;9.20;99.90
19945;DHT22;10134;50.952;6.930;2023-04-24T08:50:59;9.20;99.90
19945;DHT22;10134;50.952;6.930;2023-04-24T08:53:26;9.20;99.90
19945;DHT22;10134;50.952;6.930;2023-04-24T08:55:55;9.20;99.90
19945;DHT22;10134;50.952;6.930;2023-04-24T08:58:27;9.10;99.90
19945;DHT22;10134;50.952;6.930;2023-04-24T09:00:55;9.10;99.90
19945;DHT22;10134;50.952;6.930;2023-04-24T09:03:23;9.00;99.90
19945;DHT22;10134;50.952;6.930;2023-04-24T09:05:52;8.90;99.90
19945;DHT22;10134;50.952;6.930;2023-04-24T09:08:24;8.90;99.90
19945;DHT22;10134;50.952;6.930;2023-04-24T09:10:51;8.90;99.90
19945;DHT22;10134;50.952;6.930;2023-04-24T09:13:20;8.90;99.90
19945;DHT22;10134;50.952;6.930;2023-04-24T09:15:47;8.90;99.90
19945;DHT22;10134;50.952;6.930;2023-04-24T09:18:15;8.90;99.90
19945;DHT22;10134;50.952;6.930;2023-04-24T09:21:11;8.90;99.90
19945;DHT22;10134;50.952;6.930;2023-04-24T09:23:39;8.90;99.90
19945;DHT22;10134;50.952;6.930;2023-04-24T09:26:09;8.90;99.90
19945;DHT22;10134;50.952;6.930;2023-04-24T09:28:39;9.00;99.90
19945;DHT22;10134;50.952;6.930;2023-04-24T09:31:18;8.90;99.90
19945;DHT22;10134;50.952;6.930;2023-04-24T09:34:00;8.90;99.90
19945;DHT22;10134;50.952;6.930;2023-04-24T09:36:31;9.00;99.90
19945;DHT22;10134;50.952;6.930;2023-04-24T09:39:01;9.10;99.90
19945;DHT22;10134;50.952;6.930;2023-04-24T09:41:29;9.00;99.90
19945;DHT22;10134;50.952;6.930;2023-04-24T09:44:10;9.10;99.90
19945;DHT22;10134;50.952;6.930;2023-04-24T09:46:37;9.10;99.90
19945;DHT22;10134;50.952;6.930;2023-04-24T09:49:10;9.10;99.90
19945;DHT22;10134;50.952;6.930;2023-04-24T09:51:38;9.20;99.90
19945;DHT22;10134;50.952;6.930;2023-04-24T09:54:16;9.20;99.90
19945;DHT22;10134;50.952;6.930;2023-04-24T09:56:45;9.20;99.90
19945;DHT22;10134;50.952;6.930;2023-04-24T09:59:19;9.40;99.90
19945;DHT22;10134;50.952;6.930;2023-04-24T10:01:46;9.50;99.90
19945;DHT22;10134;50.952;6.930;2023-04-24T10:04:22;9.60;99.90
19945;DHT22;10134;50.952;6.930;2023-04-24T10:06:52;9.70;99.90
19945;DHT22;10134;50.952;6.930;2023-04-24T10:09:25;9.70;99.90
19945;DHT22;10134;50.952;6.930;2023-04-24T10:11:54;9.70;99.90
19945;DHT22;10134;50.952;6.930;2023-04-24T10:14:23;9.80;99.90
19945;DHT22;10134;50.952;6.930;2023-04-24T10:16:54;9.80;99.90
19945;DHT22;10134;50.952;6.930;2023-04-24T10:19:25;9.80;99.90
19945;DHT22;10134;50.952;6.930;2023-04-24T10:21:53;9.90;99.90
19945;DHT22;10134;50.952;6.930;2023-04-24T10:24:22;10.00;99.90
19945;DHT22;10134;50.952;6.930;2023-04-24T10:26:50;10.10;99.90
19945;DHT22;10134;50.952;6.930;2023-04-24T10:29:18;10.20;99.90
19945;DHT22;10134;50.952;6.930;2023-04-24T10:31:46;10.20;99.90
19945;DHT22;10134;50.952;6.930;2023-04-24T10:34:15;10.10;99.90
19945;DHT22;10134;50.952;6.930;2023-04-24T10:36:47;10.20;99.90
19945;DHT22;10134;50.952;6.930;2023-04-24T10:39:16;10.20;99.90
19945;DHT22;10134;50.952;6.930;2023-04-24T10:41:44;10.30;99.90
19945;DHT22;10134;50.952;6.930;2023-04-24T10:44:15;10.30;99.90
19945;DHT22;10134;50.952;6.930;2023-04-24T10:46:44;10.30;99.90
19945;DHT22;10134;50.952;6.930;2023-04-24T10:49:12;10.30;99.90
19945;DHT22;10134;50.952;6.930;2023-04-24T10:51:53;10.40;99.90
19945;DHT22;10134;50.952;6.930;2023-04-24T10:54:25;10.40;99.90
19945;DHT22;10134;50.952;6.930;2023-04-24T11:00:09;10.50;99.90
19945;DHT22;10134;50.952;6.930;2023-04-24T11:02:38;10.50;99.90
19945;DHT22;10134;50.952;6.930;2023-04-24T11:05:07;10.60;99.90
19945;DHT22;10134;50.952;6.930;2023-04-24T11:11:20;10.60;99.90
19945;DHT22;10134;50.952;6.930;2023-04-24T11:21:57;10.70;99.90
19945;DHT22;10134;50.952;6.930;2023-04-24T11:27:05;10.70;99.90
19945;DHT22;10134;50.952;6.930;2023-04-24T11:32:26;10.80;99.90
19945;DHT22;10134;50.952;6.930;2023-04-24T11:34:59;11.00;99.90
19945;DHT22;10134;50.952;6.930;2023-04-24T11:40:03;11.10;99.90
19945;DHT22;10134;50.952;6.930;2023-04-24T11:42:51;11.10;99.90
19945;DHT22;10134;50.952;6.930;2023-04-24T11:45:25;11.10;99.90
19945;DHT22;10134;50.952;6.930;2023-04-24T11:47:53;11.20;99.90
19945;DHT22;10134;50.952;6.930;2023-04-24T11:50:25;11.20;99.90
19945;DHT22;10134;50.952;6.930;2023-04-24T11:52:53;11.30;99.90
19945;DHT22;10134;50.952;6.930;2023-04-24T11:57:53;11.30;99.90
19945;DHT22;10134;50.952;6.930;2023-04-24T12:02:50;11.30;99.90
19945;DHT22;10134;50.952;6.930;2023-04-24T12:05:26;11.40;99.90
19945;DHT22;10134;50.952;6.930;2023-04-24T12:07:54;11.50;99.90
19945;DHT22;10134;50.952;6.930;2023-04-24T12:10:29;11.70;99.90
19945;DHT22;10134;50.952;6.930;2023-04-24T12:12:57;11.70;99.90
19945;DHT22;10134;50.952;6.930;2023-04-24T12:15:25;11.80;99.90
19945;DHT22;10134;50.952;6.930;2023-04-24T12:17:54;11.80;99.90
19945;DHT22;10134;50.952;6.930;2023-04-24T12:20:27;11.80;99.90
19945;DHT22;10134;50.952;6.930;2023-04-24T12:22:56;11.80;99.90
19945;DHT22;10134;50.952;6.930;2023-04-24T12:25:29;11.90;99.90
19945;DHT22;10134;50.952;6.930;2023-04-24T12:30:35;12.00;99.90
19945;DHT22;10134;50.952;6.930;2023-04-24T12:33:05;12.10;99.90
19945;DHT22;10134;50.952;6.930;2023-04-24T12:35:33;12.20;99.90
19945;DHT22;10134;50.952;6.930;2023-04-24T12:38:10;12.20;99.90
19945;DHT22;10134;50.952;6.930;2023-04-24T12:40:40;12.30;99.90
19945;DHT22;10134;50.952;6.930;2023-04-24T12:43:16;12.40;99.90
19945;DHT22;10134;50.952;6.930;2023-04-24T12:45:43;12.50;99.90
19945;DHT22;10134;50.952;6.930;2023-04-24T12:48:12;12.60;99.90
19945;DHT22;10134;50.952;6.930;2023-04-24T12:50:41;12.60;99.90
19945;DHT22;10134;50.952;6.930;2023-04-24T12:53:12;12.60;99.90
19945;DHT22;10134;50.952;6.930;2023-04-24T12:55:39;12.50;99.90
19945;DHT22;10134;50.952;6.930;2023-04-24T12:58:07;12.40;99.90
19945;DHT22;10134;50.952;6.930;2023-04-24T13:00:35;12.50;99.90
19945;DHT22;10134;50.952;6.930;2023-04-24T13:03:03;12.40;99.90
19945;DHT22;10134;50.952;6.930;2023-04-24T13:05:31;12.50;99.90
19945;DHT22;10134;50.952;6.930;2023-04-24T13:07:58;12.50;99.90
19945;DHT22;10134;50.952;6.930;2023-04-24T13:10:25;12.60;99.90
19945;DHT22;10134;50.952;6.930;2023-04-24T13:12:53;12.70;99.90
19945;DHT22;10134;50.952;6.930;2023-04-24T13:15:20;12.90;99.90
19945;DHT22;10134;50.952;6.930;2023-04-24T13:17:47;13.10;99.90
19945;DHT22;10134;50.952;6.930;2023-04-24T13:20:15;13.20;99.90
19945;DHT22;10134;50.952;6.930;2023-04-24T13:22:42;13.20;99.90
19945;DHT22;10134;50.952;6.930;2023-04-24T13:25:10;13.10;99.90
19945;DHT22;10134;50.952;6.930;2023-04-24T13:27:38;13.10;99.90
19945;DHT22;10134;50.952;6.930;2023-04-24T13:30:07;12.90;99.90
19945;DHT22;10134;50.952;6.930;2023-04-24T13:32:34;12.80;99.90
19945;DHT22;10134;50.952;6.930;2023-04-24T13:35:02;12.90;99.90
19945;DHT22;10134;50.952;6.930;2023-04-24T13:37:30;13.30;99.90
19945;DHT22;10134;50.952;6.930;2023-04-24T13:39:57;13.80;99.90
19945;DHT22;10134;50.952;6.930;2023-04-24T13:42:24;14.00;99.90
19945;DHT22;10134;50.952;6.930;2023-04-24T13:44:52;14.20;99.90
19945;DHT22;10134;50.952;6.930;2023-04-24T13:47:19;14.20;99.90
19945;DHT22;10134;50.952;6.930;2023-04-24T13:49:46;14.20;99.90
19945;DHT22;10134;50.952;6.930;2023-04-24T13:52:14;14.00;99.90
19945;DHT22;10134;50.952;6.930;2023-04-24T13:54:41;13.90;99.90
19945;DHT22;10134;50.952;6.930;2023-04-24T13:57:08;13.90;99.90
19945;DHT22;10134;50.952;6.930;2023-04-24T13:59:36;13.80;99.90
19945;DHT22;10134;50.952;6.930;2023-04-24T14:02:04;13.90;99.90
19945;DHT22;10134;50.952;6.930;2023-04-24T14:04:31;13.90;99.90
19945;DHT22;10134;50.952;6.930;2023-04-24T14:06:58;14.10;99.90
19945;DHT22;10134;50.952;6.930;2023-04-24T14:09:26;14.20;99.90
19945;DHT22;10134;50.952;6.930;2023-04-24T14:11:53;14.70;99.90
19945;DHT22;10134;50.952;6.930;2023-04-24T14:14:21;15.20;99.90
19945;DHT22;10134;50.952;6.930;2023-04-24T14:16:48;15.70;99.90
19945;DHT22;10134;50.952;6.930;2023-04-24T14:19:15;16.40;99.90
19945;DHT22;10134;50.952;6.930;2023-04-24T14:21:43;16.90;99.70
19945;DHT22;10134;50.952;6.930;2023-04-24T14:24:11;17.00;97.30
19945;DHT22;10134;50.952;6.930;2023-04-24T14:26:38;17.00;96.60
19945;DHT22;10134;50.952;6.930;2023-04-24T14:29:06;16.50;93.90
19945;DHT22;10134;50.952;6.930;2023-04-24T14:31:41;16.00;94.40
19945;DHT22;10134;50.952;6.930;2023-04-24T14:34:10;15.70;94.30
19945;DHT22;10134;50.952;6.930;2023-04-24T14:36:38;16.10;94.40
19945;DHT22;10134;50.952;6.930;2023-04-24T14:39:05;16.60;93.60
19945;DHT22;10134;50.952;6.930;2023-04-24T14:41:34;17.00;91.50
19945;DHT22;10134;50.952;6.930;2023-04-24T14:44:03;18.00;92.00
19945;DHT22;10134;50.952;6.930;2023-04-24T14:46:31;18.80;84.80
19945;DHT22;10134;50.952;6.930;2023-04-24T14:48:59;18.50;82.10
19945;DHT22;10134;50.952;6.930;2023-04-24T14:51:26;18.10;83.80
19945;DHT22;10134;50.952;6.930;2023-04-24T14:53:53;17.90;84.50
19945;DHT22;10134;50.952;6.930;2023-04-24T14:56:21;17.50;83.90
19945;DHT22;10134;50.952;6.930;2023-04-24T14:58:48;17.40;84.80
19945;DHT22;10134;50.952;6.930;2023-04-24T15:01:16;18.10;84.00
19945;DHT22;10134;50.952;6.930;2023-04-24T15:03:44;18.90;81.20
19945;DHT22;10134;50.952;6.930;2023-04-24T15:06:12;19.60;79.10
19945;DHT22;10134;50.952;6.930;2023-04-24T15:08:40;19.70;78.20
19945;DHT22;10134;50.952;6.930;2023-04-24T15:11:07;19.30;78.90
19945;DHT22;10134;50.952;6.930;2023-04-24T15:13:35;18.90;78.40
19945;DHT22;10134;50.952;6.930;2023-04-24T15:16:02;18.30;79.30
19945;DHT22;10134;50.952;6.930;2023-04-24T15:18:30;18.30;80.70
19945;DHT22;10134;50.952;6.930;2023-04-24T15:20:57;18.60;80.50
19945;DHT22;10134;50.952;6.930;2023-04-24T15:23:24;19.10;80.80
19945;DHT22;10134;50.952;6.930;2023-04-24T15:25:51;18.80;78.30
19945;DHT22;10134;50.952;6.930;2023-04-24T15:28:19;18.50;78.20
19945;DHT22;10134;50.952;6.930;2023-04-24T15:30:46;18.30;78.70
19945;DHT22;10134;50.952;6.930;2023-04-24T15:33:13;18.10;80.10
19945;DHT22;10134;50.952;6.930;2023-04-24T15:35:41;18.00;81.10
19945;DHT22;10134;50.952;6.930;2023-04-24T15:38:08;17.90;80.30
19945;DHT22;10134;50.952;6.930;2023-04-24T15:40:36;17.60;80.10
19945;DHT22;10134;50.952;6.930;2023-04-24T15:43:03;18.00;81.30
19945;DHT22;10134;50.952;6.930;2023-04-24T15:45:31;19.10;81.20
19945;DHT22;10134;50.952;6.930;2023-04-24T15:47:59;20.10;77.40
19945;DHT22;10134;50.952;6.930;2023-04-24T15:50:27;20.70;74.60
19945;DHT22;10134;50.952;6.930;2023-04-24T15:52:55;20.60;73.70
19945;DHT22;10134;50.952;6.930;2023-04-24T15:55:22;20.30;74.00
19945;DHT22;10134;50.952;6.930;2023-04-24T15:57:49;20.30;74.80
19945;DHT22;10134;50.952;6.930;2023-04-24T16:00:17;20.40;73.10
19945;DHT22;10134;50.952;6.930;2023-04-24T16:02:44;20.20;72.60
19945;DHT22;10134;50.952;6.930;2023-04-24T16:05:12;19.70;73.20
19945;DHT22;10134;50.952;6.930;2023-04-24T16:07:39;19.30;73.30
19945;DHT22;10134;50.952;6.930;2023-04-24T16:10:07;18.60;74.40
19945;DHT22;10134;50.952;6.930;2023-04-24T16:12:35;18.20;75.40
19945;DHT22;10134;50.952;6.930;2023-04-24T16:15:02;17.80;76.20